AirNav   TITAN Aviation Fuels
 
 1519 users online  

2FA6 Freeflight Airpark
Coleman, Florida, USA

GOING TO COLEMAN?


FAA INFORMATION EFFECTIVE 03 NOVEMBER 2022

Location

FAA Identifier: 2FA6
Lat/Long: 28-48-39.9560N 082-03-55.3080W
28-48.665933N 082-03.921800W
28.8110989,-82.0653633
(estimated)
Elevation: 55 ft. / 17 m (estimated)
Variation: 02W (1985)
Time zone: UTC -5 (UTC -4 during Daylight Saving Time)
Zip code: 33521

Airport Operations

Airport use: Private use. Permission required prior to landing
Activation date: 12/1973
Control tower: no
ARTCC: JACKSONVILLE CENTER
FSS: SAINT PETERSBURG FLIGHT SERVICE STATION
Attendance: CONTINUOUS
Wind indicator: yes
Segmented circle: no

Airport Communications

UNICOM: 122.7
WX AWOS-3 at INF (13 nm W): 119.975 (352-560-6012)
WX ASOS at LEE (14 nm E): PHONE 352-787-1565

Nearby radio navigation aids

VOR radial/distance  VOR name  Freq  Var
OCFr159/23.6OCALA VORTAC113.7000E

Airport Services

Runway Information

Runway 2/20

Dimensions: 4100 x 100 ft. / 1250 x 30 m
Surface: turf
RUNWAY 2  RUNWAY 20
Traffic pattern: leftleft

Airport Ownership and Management from official FAA records

Ownership: Privately-owned
Owner: LAND AIR FLORIDA, LLC
3538 ALDINO RD, HANGAR 13
CHURCHVILLE, MD 21028-0600
Phone 410-734-4888
Manager: LANCE LINTON
1511 TAYLOR AVE
COLEMAN, FL 33521-0600
Phone 410-253-8040

Airport Operational Statistics

Aircraft based on the field: 6
Single engine airplanes: 5
Gliders airplanes: 1
    

Additional Remarks

FOR CD CTC JACKSONVILLE APCH AT 904-741-0284.
HNGR AND TIE DOWNS AVBL. CTC AMGR.

Instrument Procedures

There are no published instrument procedures at 2FA6.

Some nearby airports with instrument procedures:

KINF - Inverness Airport (13 nm W)
KLEE - Leesburg International Airport (14 nm E)
X35 - Marion County Airport (22 nm NW)
X23 - Umatilla Municipal Airport (23 nm E)
KOCF - Ocala International Airport-Jim Taylor Field (23 nm N)
 
Loc | Ops | Rwys | IFR | FBO | Links
Com | Nav | Svcs | Stats | Notes


 
Area around 2FA6 (Freeflight Airpark)
 
Road maps at: MapQuest Bing Google
 
Aerial photo
WARNING: Photo may not be current or correct
Aerial photo of 2FA6 (Freeflight Airpark)
Do you have a better or more recent aerial photo of Freeflight Airpark that you would like to share? If so, please send us your photo.

 
Sectional chart

 
Airport distance calculator
Flying to Freeflight Airpark? Find the distance to fly.

From to 2FA6

Sunrise and sunset
Times for 28-Nov-2022
 Local
(UTC-5)
 Zulu
(UTC)
Morning civil twilight06:3711:37
Sunrise07:0312:03
Sunset17:3022:30
Evening civil twilight17:5522:55

Current date and time
Zulu (UTC)  28-Nov-2022 15:50:18
Local (UTC-5)  28-Nov-2022 10:50:18
 
METAR
KLEE 
13nm E 
281453Z 34005KT 10SM CLR 21/14 A3011 RMK AO2 SLP195 T02060144 51022
KINF 
13nm W 
281535Z AUTO 00000KT 7SM CLR 22/16 A3010 RMK AO2
KOCF 
23nm N 
281451Z 32005KT 10SM CLR 19/16 A3011 RMK AO2 SLP197 6//// T01940161 53011 PNO $
TAF
KLEE 
13nm E 
281136Z 2812/2912 29003KT P6SM OVC080 TEMPO 2812/2813 2SM BR BKN002 FM281300 35004KT P6SM FEW050 SCT250 FM281800 26005KT P6SM FEW050 FM282300 30003KT P6SM FEW250
NOTAMs
Click for the latest NOTAMs
NOTAMs are issued by the DoD/FAA and will open in a separate window not controlled by AirNav.

 

 
 

Would you like to see your business listed on this page?

 If your business provides an interesting product or service to pilots, flight crews, aircraft, or users of the Freeflight Airpark, you should consider listing it here.  To start the listing process, click on the button below
 
Add a business
 

Other Pages about Freeflight Airpark

Update a link
 
Copyright © AirNav, LLC. All rights reserved. Privacy Policy  Contact